sensor_id;sensor_type;location;lat;lon;timestamp;pressure;altitude;pressure_sealevel;temperature;humidity
5877;BME280;2964;42.144;24.730;2023-04-30T00:00:37;145071.00;;;14.07;79.46
5877;BME280;2964;42.144;24.730;2023-04-30T00:03:04;144800.31;;;12.97;78.72
5877;BME280;2964;42.144;24.730;2023-04-30T00:05:30;145078.56;;;14.10;78.01
5877;BME280;2964;42.144;24.730;2023-04-30T00:07:57;145102.50;;;14.20;78.63
5877;BME280;2964;42.144;24.730;2023-04-30T00:10:24;145103.78;;;14.20;80.96
5877;BME280;2964;42.144;24.730;2023-04-30T00:12:51;144878.31;;;13.28;84.10
5877;BME280;2964;42.144;24.730;2023-04-30T00:15:17;145028.19;;;13.89;86.20
5877;BME280;2964;42.144;24.730;2023-04-30T00:17:45;145010.56;;;13.82;86.02
5877;BME280;2964;42.144;24.730;2023-04-30T00:20:12;145024.41;;;13.88;84.50
5877;BME280;2964;42.144;24.730;2023-04-30T00:22:39;145107.53;;;14.22;81.45
5877;BME280;2964;42.144;24.730;2023-04-30T00:25:06;145053.38;;;14.00;83.50
5877;BME280;2964;42.144;24.730;2023-04-30T00:27:33;145033.22;;;13.92;86.23
5877;BME280;2964;42.144;24.730;2023-04-30T00:30:00;145029.44;;;13.90;86.58
5877;BME280;2964;42.144;24.730;2023-04-30T00:32:27;145024.41;;;13.88;84.49
5877;BME280;2964;42.144;24.730;2023-04-30T00:34:55;145097.47;;;14.18;82.30
5877;BME280;2964;42.144;24.730;2023-04-30T00:37:21;145082.38;;;14.12;84.56
5877;BME280;2964;42.144;24.730;2023-04-30T00:39:48;145089.94;;;14.15;84.32
5877;BME280;2964;42.144;24.730;2023-04-30T00:42:14;145100.00;;;14.19;82.91
5877;BME280;2964;42.144;24.730;2023-04-30T00:44:41;145077.34;;;14.09;82.79
5877;BME280;2964;42.144;24.730;2023-04-30T00:47:08;145065.97;;;14.05;81.90
5877;BME280;2964;42.144;24.730;2023-04-30T00:49:35;145057.16;;;14.01;85.86
5877;BME280;2964;42.144;24.730;2023-04-30T00:52:03;145077.34;;;14.09;85.58
5877;BME280;2964;42.144;24.730;2023-04-30T00:54:30;145006.78;;;13.81;87.45
5877;BME280;2964;42.144;24.730;2023-04-30T00:56:57;145015.59;;;13.84;87.81
5877;BME280;2964;42.144;24.730;2023-04-30T00:59:24;145000.50;;;13.78;89.25
5877;BME280;2964;42.144;24.730;2023-04-30T01:01:51;144976.59;;;13.68;90.52
5877;BME280;2964;42.144;24.730;2023-04-30T01:04:17;145021.94;;;13.87;89.12
5877;BME280;2964;42.144;24.730;2023-04-30T01:06:45;144991.69;;;13.75;89.16
5877;BME280;2964;42.144;24.730;2023-04-30T01:09:13;144966.47;;;13.64;88.96
5877;BME280;2964;42.144;24.730;2023-04-30T01:11:49;144996.72;;;13.77;89.73
5877;BME280;2964;42.144;24.730;2023-04-30T01:14:24;145042.06;;;13.95;87.49
5877;BME280;2964;42.144;24.730;2023-04-30T01:16:59;144996.72;;;13.77;89.70
5877;BME280;2964;42.144;24.730;2023-04-30T01:19:35;144974.06;;;13.67;90.40
5877;BME280;2964;42.144;24.730;2023-04-30T01:22:04;144953.88;;;13.59;91.37
5877;BME280;2964;42.144;24.730;2023-04-30T01:24:52;144981.63;;;13.70;90.68
5877;BME280;2964;42.144;24.730;2023-04-30T01:27:29;144987.91;;;13.73;90.22
5877;BME280;2964;42.144;24.730;2023-04-30T01:30:00;144948.84;;;13.57;90.19
5877;BME280;2964;42.144;24.730;2023-04-30T01:32:29;145024.41;;;13.88;88.14
5877;BME280;2964;42.144;24.730;2023-04-30T01:34:55;145001.75;;;13.79;89.26
5877;BME280;2964;42.144;24.730;2023-04-30T01:37:29;144958.97;;;13.61;89.29
5877;BME280;2964;42.144;24.730;2023-04-30T01:40:13;144999.25;;;13.78;86.96
5877;BME280;2964;42.144;24.730;2023-04-30T01:42:51;144986.66;;;13.73;87.89
5877;BME280;2964;42.144;24.730;2023-04-30T01:45:45;144956.41;;;13.60;89.17
5877;BME280;2964;42.144;24.730;2023-04-30T01:48:21;144918.66;;;13.45;86.15
5877;BME280;2964;42.144;24.730;2023-04-30T01:50:54;144901.03;;;13.38;85.28
5877;BME280;2964;42.144;24.730;2023-04-30T01:53:33;144690.81;;;12.52;87.13
5877;BME280;2964;42.144;24.730;2023-04-30T01:56:05;144946.34;;;13.56;85.42
5877;BME280;2964;42.144;24.730;2023-04-30T01:58:36;144984.13;;;13.71;84.62
5877;BME280;2964;42.144;24.730;2023-04-30T02:01:05;144856.91;;;13.20;86.17
5877;BME280;2964;42.144;24.730;2023-04-30T02:03:32;144860.69;;;13.21;88.52
5877;BME280;2964;42.144;24.730;2023-04-30T02:05:58;144805.34;;;12.99;90.99
5877;BME280;2964;42.144;24.730;2023-04-30T02:08:25;144773.88;;;12.86;92.65
5877;BME280;2964;42.144;24.730;2023-04-30T02:10:52;144760.03;;;12.80;93.69
5877;BME280;2964;42.144;24.730;2023-04-30T02:13:19;144761.28;;;12.81;93.78
5877;BME280;2964;42.144;24.730;2023-04-30T02:15:45;144815.41;;;13.03;91.52
5877;BME280;2964;42.144;24.730;2023-04-30T02:18:13;144869.50;;;13.25;88.94
5877;BME280;2964;42.144;24.730;2023-04-30T02:20:40;144807.81;;;13.00;91.60
5877;BME280;2964;42.144;24.730;2023-04-30T02:23:07;144767.56;;;12.83;92.17
5877;BME280;2964;42.144;24.730;2023-04-30T02:25:35;144771.34;;;12.85;92.38
5877;BME280;2964;42.144;24.730;2023-04-30T02:28:03;144751.22;;;12.77;94.96
5877;BME280;2964;42.144;24.730;2023-04-30T02:30:30;144727.28;;;12.67;95.47
5877;BME280;2964;42.144;24.730;2023-04-30T02:32:57;144738.63;;;12.71;94.91
5877;BME280;2964;42.144;24.730;2023-04-30T02:35:25;144717.22;;;12.63;95.03
5877;BME280;2964;42.144;24.730;2023-04-30T02:37:51;144655.63;;;12.38;94.59
5877;BME280;2964;42.144;24.730;2023-04-30T02:40:18;144717.22;;;12.63;95.74
5877;BME280;2964;42.144;24.730;2023-04-30T02:42:44;144716.00;;;12.62;95.11
5877;BME280;2964;42.144;24.730;2023-04-30T02:45:11;144761.28;;;12.81;95.32
5877;BME280;2964;42.144;24.730;2023-04-30T02:47:38;144749.94;;;12.76;95.73
5877;BME280;2964;42.144;24.730;2023-04-30T02:50:05;144736.09;;;12.70;96.15
5877;BME280;2964;42.144;24.730;2023-04-30T02:52:34;144732.38;;;12.69;97.02
5877;BME280;2964;42.144;24.730;2023-04-30T02:55:00;144732.38;;;12.69;97.60
5877;BME280;2964;42.144;24.730;2023-04-30T02:57:27;144732.38;;;12.69;97.41
5877;BME280;2964;42.144;24.730;2023-04-30T02:59:54;144731.06;;;12.68;97.52
5877;BME280;2964;42.144;24.730;2023-04-30T03:02:20;144744.91;;;12.74;97.31
5877;BME280;2964;42.144;24.730;2023-04-30T03:04:48;144761.28;;;12.81;96.94
5877;BME280;2964;42.144;24.730;2023-04-30T03:07:14;144747.44;;;12.75;97.68
5877;BME280;2964;42.144;24.730;2023-04-30T03:09:42;144734.84;;;12.70;97.81
5877;BME280;2964;42.144;24.730;2023-04-30T03:12:10;144732.38;;;12.69;98.41
5877;BME280;2964;42.144;24.730;2023-04-30T03:14:38;144736.09;;;12.70;97.96
5877;BME280;2964;42.144;24.730;2023-04-30T03:17:05;144742.41;;;12.73;97.64
5877;BME280;2964;42.144;24.730;2023-04-30T03:19:32;144761.28;;;12.81;96.81
5877;BME280;2964;42.144;24.730;2023-04-30T03:21:59;144772.59;;;12.85;97.13
5877;BME280;2964;42.144;24.730;2023-04-30T03:24:25;144752.47;;;12.77;98.03
5877;BME280;2964;42.144;24.730;2023-04-30T03:26:53;144734.84;;;12.70;96.96
5877;BME280;2964;42.144;24.730;2023-04-30T03:29:20;144729.81;;;12.68;97.29
5877;BME280;2964;42.144;24.730;2023-04-30T03:31:47;144801.56;;;12.97;95.12
5877;BME280;2964;42.144;24.730;2023-04-30T03:34:13;144846.84;;;13.16;93.90
5877;BME280;2964;42.144;24.730;2023-04-30T03:36:40;144767.56;;;12.83;94.73
5877;BME280;2964;42.144;24.730;2023-04-30T03:39:07;144743.66;;;12.73;95.54
5877;BME280;2964;42.144;24.730;2023-04-30T03:41:34;144749.94;;;12.76;96.21
5877;BME280;2964;42.144;24.730;2023-04-30T03:44:02;144850.66;;;13.17;93.82
5877;BME280;2964;42.144;24.730;2023-04-30T03:46:29;144918.66;;;13.45;92.30
5877;BME280;2964;42.144;24.730;2023-04-30T03:48:56;144888.44;;;13.32;92.86
5877;BME280;2964;42.144;24.730;2023-04-30T03:51:23;144868.28;;;13.24;93.52
5877;BME280;2964;42.144;24.730;2023-04-30T03:53:50;144787.72;;;12.91;95.49
5877;BME280;2964;42.144;24.730;2023-04-30T03:56:16;144824.22;;;13.06;95.19
5877;BME280;2964;42.144;24.730;2023-04-30T03:58:43;144619.09;;;12.23;96.62
5877;BME280;2964;42.144;24.730;2023-04-30T04:01:11;144709.66;;;12.60;97.88
5877;BME280;2964;42.144;24.730;2023-04-30T04:03:38;144708.44;;;12.59;99.09
5877;BME280;2964;42.144;24.730;2023-04-30T04:06:04;144729.81;;;12.68;99.12
5877;BME280;2964;42.144;24.730;2023-04-30T04:08:31;144817.88;;;13.04;97.03
5877;BME280;2964;42.144;24.730;2023-04-30T04:10:58;144785.19;;;12.90;97.88
5877;BME280;2964;42.144;24.730;2023-04-30T04:13:25;144768.84;;;12.84;98.25
5877;BME280;2964;42.144;24.730;2023-04-30T04:15:51;144899.78;;;13.37;94.99
5877;BME280;2964;42.144;24.730;2023-04-30T04:18:19;144874.56;;;13.27;95.57
5877;BME280;2964;42.144;24.730;2023-04-30T04:20:46;144919.91;;;13.45;94.21
5877;BME280;2964;42.144;24.730;2023-04-30T04:23:13;144947.59;;;13.57;93.28
5877;BME280;2964;42.144;24.730;2023-04-30T04:25:39;144932.50;;;13.50;94.04
5877;BME280;2964;42.144;24.730;2023-04-30T04:28:08;144830.47;;;13.09;94.87
5877;BME280;2964;42.144;24.730;2023-04-30T04:30:35;144861.94;;;13.22;94.55
5877;BME280;2964;42.144;24.730;2023-04-30T04:33:02;144940.03;;;13.54;93.40
5877;BME280;2964;42.144;24.730;2023-04-30T04:35:31;144926.19;;;13.48;94.03
5877;BME280;2964;42.144;24.730;2023-04-30T04:37:58;144966.47;;;13.64;92.91
5877;BME280;2964;42.144;24.730;2023-04-30T04:40:24;144879.56;;;13.29;94.48
5877;BME280;2964;42.144;24.730;2023-04-30T04:42:51;144918.66;;;13.45;93.83
5877;BME280;2964;42.144;24.730;2023-04-30T04:45:18;144964.00;;;13.63;92.32
5877;BME280;2964;42.144;24.730;2023-04-30T04:47:45;144936.31;;;13.52;92.90
5877;BME280;2964;42.144;24.730;2023-04-30T04:50:12;144916.13;;;13.44;93.46
5877;BME280;2964;42.144;24.730;2023-04-30T04:52:41;144921.16;;;13.46;93.90
5877;BME280;2964;42.144;24.730;2023-04-30T04:55:08;144879.56;;;13.29;94.42
5877;BME280;2964;42.144;24.730;2023-04-30T04:57:36;145039.50;;;13.94;93.82
5877;BME280;2964;42.144;24.730;2023-04-30T05:00:04;145116.34;;;14.25;91.18
5877;BME280;2964;42.144;24.730;2023-04-30T05:02:32;145251.22;;;14.80;90.46
5877;BME280;2964;42.144;24.730;2023-04-30T05:04:59;145643.47;;;16.40;84.80
5877;BME280;2964;42.144;24.730;2023-04-30T05:07:26;146154.94;;;18.48;74.11
5877;BME280;2964;42.144;24.730;2023-04-30T05:09:54;146458.41;;;19.71;69.70
5877;BME280;2964;42.144;24.730;2023-04-30T05:12:20;146582.47;;;20.21;62.29
5877;BME280;2964;42.144;24.730;2023-04-30T05:14:47;146841.97;;;21.27;58.70
5877;BME280;2964;42.144;24.730;2023-04-30T05:17:15;146992.72;;;21.88;54.35
5877;BME280;2964;42.144;24.730;2023-04-30T05:19:42;147256.34;;;22.94;50.87
5877;BME280;2964;42.144;24.730;2023-04-30T05:22:09;147201.84;;;22.72;50.34
5877;BME280;2964;42.144;24.730;2023-04-30T05:24:36;147066.19;;;22.17;53.17
5877;BME280;2964;42.144;24.730;2023-04-30T05:27:04;147139.72;;;22.47;51.53
5877;BME280;2964;42.144;24.730;2023-04-30T05:29:30;146930.66;;;21.63;55.88
5877;BME280;2964;42.144;24.730;2023-04-30T05:31:57;146933.19;;;21.64;55.41
5877;BME280;2964;42.144;24.730;2023-04-30T05:34:24;147280.47;;;23.04;51.70
5877;BME280;2964;42.144;24.730;2023-04-30T05:36:50;147230.97;;;22.84;49.85
5877;BME280;2964;42.144;24.730;2023-04-30T05:39:17;147701.69;;;24.75;45.21
5877;BME280;2964;42.144;24.730;2023-04-30T05:41:44;147418.66;;;23.60;45.76
5877;BME280;2964;42.144;24.730;2023-04-30T05:44:12;147624.22;;;24.43;43.65
5877;BME280;2964;42.144;24.730;2023-04-30T05:46:38;147520.19;;;24.01;45.17
5877;BME280;2964;42.144;24.730;2023-04-30T05:49:05;147393.34;;;23.50;45.39
5877;BME280;2964;42.144;24.730;2023-04-30T05:51:32;147733.41;;;24.88;42.46
5877;BME280;2964;42.144;24.730;2023-04-30T05:53:58;147687.72;;;24.69;42.38
5877;BME280;2964;42.144;24.730;2023-04-30T05:56:25;147350.19;;;23.32;44.97
5877;BME280;2964;42.144;24.730;2023-04-30T05:58:52;147033.28;;;22.04;48.99
5877;BME280;2964;42.144;24.730;2023-04-30T06:01:20;147441.50;;;23.69;47.13
5877;BME280;2964;42.144;24.730;2023-04-30T06:03:47;147621.72;;;24.42;45.12
5877;BME280;2964;42.144;24.730;2023-04-30T06:06:14;148042.09;;;26.12;40.14
5877;BME280;2964;42.144;24.730;2023-04-30T06:08:40;148342.09;;;27.33;37.64
5877;BME280;2964;42.144;24.730;2023-04-30T06:11:10;148437.41;;;27.72;35.51
5877;BME280;2964;42.144;24.730;2023-04-30T06:13:37;148418.34;;;27.64;35.05
5877;BME280;2964;42.144;24.730;2023-04-30T06:16:05;148760.66;;;29.02;34.91
5877;BME280;2964;42.144;24.730;2023-04-30T06:18:33;147728.34;;;24.85;41.70
5877;BME280;2964;42.144;24.730;2023-04-30T06:21:00;148213.63;;;26.82;37.66
5877;BME280;2964;42.144;24.730;2023-04-30T06:23:26;147702.97;;;24.75;42.77
5877;BME280;2964;42.144;24.730;2023-04-30T06:25:53;147897.22;;;25.54;39.94
5877;BME280;2964;42.144;24.730;2023-04-30T06:28:19;148396.78;;;27.56;36.89
5877;BME280;2964;42.144;24.730;2023-04-30T06:30:46;148057.31;;;26.18;39.28
5877;BME280;2964;42.144;24.730;2023-04-30T06:33:13;148314.03;;;27.22;36.42
5877;BME280;2964;42.144;24.730;2023-04-30T06:35:41;148529.03;;;28.09;35.80
5877;BME280;2964;42.144;24.730;2023-04-30T06:38:08;148904.56;;;29.60;32.96
5877;BME280;2964;42.144;24.730;2023-04-30T06:40:34;148588.84;;;28.33;33.64
5877;BME280;2964;42.144;24.730;2023-04-30T06:43:01;148562.13;;;28.22;35.83
5877;BME280;2964;42.144;24.730;2023-04-30T06:45:28;149080.31;;;30.31;32.29
5877;BME280;2964;42.144;24.730;2023-04-30T06:47:54;149262.56;;;31.05;30.24
5877;BME280;2964;42.144;24.730;2023-04-30T06:50:21;148775.91;;;29.08;31.38
5877;BME280;2964;42.144;24.730;2023-04-30T06:52:49;149413.00;;;31.65;29.00
5877;BME280;2964;42.144;24.730;2023-04-30T06:55:16;148595.19;;;28.36;32.85
5877;BME280;2964;42.144;24.730;2023-04-30T06:57:43;148601.53;;;28.38;33.37
5877;BME280;2964;42.144;24.730;2023-04-30T07:00:10;148460.31;;;27.81;33.65
5877;BME280;2964;42.144;24.730;2023-04-30T07:02:39;149158.03;;;30.63;30.67
5877;BME280;2964;42.144;24.730;2023-04-30T07:05:06;149397.69;;;31.59;28.80
5877;BME280;2964;42.144;24.730;2023-04-30T07:07:33;148690.69;;;28.74;33.55
5877;BME280;2964;42.144;24.730;2023-04-30T07:10:01;148096.72;;;26.34;36.46
5877;BME280;2964;42.144;24.730;2023-04-30T07:12:28;148171.72;;;26.65;36.05
5877;BME280;2964;42.144;24.730;2023-04-30T07:14:54;148865.06;;;29.44;30.94
5877;BME280;2964;42.144;24.730;2023-04-30T07:17:21;148984.78;;;29.93;30.72
5877;BME280;2964;42.144;24.730;2023-04-30T07:19:48;149938.63;;;33.77;26.57
5877;BME280;2964;42.144;24.730;2023-04-30T07:22:14;149470.34;;;31.88;27.80
5877;BME280;2964;42.144;24.730;2023-04-30T07:24:41;149938.63;;;33.77;25.68
5877;BME280;2964;42.144;24.730;2023-04-30T07:27:09;149947.56;;;33.80;25.50
5877;BME280;2964;42.144;24.730;2023-04-30T07:29:35;149836.50;;;33.36;25.75
5877;BME280;2964;42.144;24.730;2023-04-30T07:32:02;149234.56;;;30.93;27.85
5877;BME280;2964;42.144;24.730;2023-04-30T07:34:29;149901.56;;;33.62;26.18
5877;BME280;2964;42.144;24.730;2023-04-30T07:36:56;149555.81;;;32.23;26.66
5877;BME280;2964;42.144;24.730;2023-04-30T07:39:23;149782.91;;;33.14;25.14
5877;BME280;2964;42.144;24.730;2023-04-30T07:41:49;150424.03;;;35.72;23.22
5877;BME280;2964;42.144;24.730;2023-04-30T07:44:17;149772.66;;;33.10;24.81
5877;BME280;2964;42.144;24.730;2023-04-30T07:46:45;150163.34;;;34.67;23.29
5877;BME280;2964;42.144;24.730;2023-04-30T07:49:12;150044.59;;;34.19;25.02
5877;BME280;2964;42.144;24.730;2023-04-30T07:51:39;149503.47;;;32.02;26.20
5877;BME280;2964;42.144;24.730;2023-04-30T07:54:07;149309.69;;;31.24;27.16
5877;BME280;2964;42.144;24.730;2023-04-30T07:56:33;149701.28;;;32.81;26.22
5877;BME280;2964;42.144;24.730;2023-04-30T07:59:00;148973.34;;;29.88;30.04
5877;BME280;2964;42.144;24.730;2023-04-30T08:01:28;149331.38;;;31.32;27.04
5877;BME280;2964;42.144;24.730;2023-04-30T08:03:55;149739.53;;;32.97;25.66
5877;BME280;2964;42.144;24.730;2023-04-30T08:06:22;150472.59;;;35.91;22.62
5877;BME280;2964;42.144;24.730;2023-04-30T08:08:48;149662.97;;;32.66;23.36
5877;BME280;2964;42.144;24.730;2023-04-30T08:11:15;149586.41;;;32.35;23.35
5877;BME280;2964;42.144;24.730;2023-04-30T08:13:42;149415.53;;;31.66;25.24
5877;BME280;2964;42.144;24.730;2023-04-30T08:16:08;149525.22;;;32.10;25.27
5877;BME280;2964;42.144;24.730;2023-04-30T08:18:36;149458.91;;;31.84;24.50
5877;BME280;2964;42.144;24.730;2023-04-30T08:21:08;150280.88;;;35.14;21.57
5877;BME280;2964;42.144;24.730;2023-04-30T08:23:34;150418.94;;;35.70;20.91
5877;BME280;2964;42.144;24.730;2023-04-30T08:26:01;150733.38;;;36.96;20.45
5877;BME280;2964;42.144;24.730;2023-04-30T08:28:28;150252.78;;;35.03;21.61
5877;BME280;2964;42.144;24.730;2023-04-30T08:30:55;150695.03;;;36.81;19.84
5877;BME280;2964;42.144;24.730;2023-04-30T08:33:22;150125.06;;;34.52;22.42
5877;BME280;2964;42.144;24.730;2023-04-30T08:35:50;150362.69;;;35.47;21.85
5877;BME280;2964;42.144;24.730;2023-04-30T08:38:16;149317.38;;;31.27;26.31
5877;BME280;2964;42.144;24.730;2023-04-30T08:40:48;149874.78;;;33.51;24.51
5877;BME280;2964;42.144;24.730;2023-04-30T08:43:17;150642.59;;;36.60;21.05
5877;BME280;2964;42.144;24.730;2023-04-30T08:45:44;150643.88;;;36.60;21.34
5877;BME280;2964;42.144;24.730;2023-04-30T08:48:12;150876.66;;;37.54;19.60
5877;BME280;2964;42.144;24.730;2023-04-30T08:50:40;150588.91;;;36.38;19.52
5877;BME280;2964;42.144;24.730;2023-04-30T08:53:09;150435.56;;;35.77;20.19
5877;BME280;2964;42.144;24.730;2023-04-30T08:55:38;151077.53;;;38.34;18.11
5877;BME280;2964;42.144;24.730;2023-04-30T08:58:06;149464.00;;;31.86;21.77
5877;BME280;2964;42.144;24.730;2023-04-30T09:00:37;149988.41;;;33.97;21.78
5877;BME280;2964;42.144;24.730;2023-04-30T09:03:04;149478.00;;;31.91;22.11
5877;BME280;2964;42.144;24.730;2023-04-30T09:05:31;150065.06;;;34.28;20.64
5877;BME280;2964;42.144;24.730;2023-04-30T09:07:57;149796.94;;;33.20;21.72
5877;BME280;2964;42.144;24.730;2023-04-30T09:10:25;149557.09;;;32.23;23.04
5877;BME280;2964;42.144;24.730;2023-04-30T09:12:59;149205.16;;;30.82;24.49
5877;BME280;2964;42.144;24.730;2023-04-30T09:15:26;149071.38;;;30.28;24.89
5877;BME280;2964;42.144;24.730;2023-04-30T09:18:09;148609.19;;;28.41;26.63
5877;BME280;2964;42.144;24.730;2023-04-30T09:20:37;148613.03;;;28.43;28.09
5877;BME280;2964;42.144;24.730;2023-04-30T09:23:05;148565.97;;;28.24;27.95
5877;BME280;2964;42.144;24.730;2023-04-30T09:25:39;148518.88;;;28.05;28.53
5877;BME280;2964;42.144;24.730;2023-04-30T09:28:07;148279.75;;;27.08;30.26
5877;BME280;2964;42.144;24.730;2023-04-30T09:30:34;148122.09;;;26.45;30.76
5877;BME280;2964;42.144;24.730;2023-04-30T09:33:01;147869.31;;;25.42;30.90
5877;BME280;2964;42.144;24.730;2023-04-30T09:35:28;148091.63;;;26.32;29.71
5877;BME280;2964;42.144;24.730;2023-04-30T09:37:55;148189.50;;;26.72;30.63
5877;BME280;2964;42.144;24.730;2023-04-30T09:40:31;147979.78;;;25.87;29.59
5877;BME280;2964;42.144;24.730;2023-04-30T09:42:59;148278.50;;;27.08;30.00
5877;BME280;2964;42.144;24.730;2023-04-30T09:45:26;147959.47;;;25.79;29.71
5877;BME280;2964;42.144;24.730;2023-04-30T09:48:04;148816.69;;;29.25;28.04
5877;BME280;2964;42.144;24.730;2023-04-30T09:50:36;149084.19;;;30.33;24.53
5877;BME280;2964;42.144;24.730;2023-04-30T09:53:06;149033.19;;;30.12;25.84
5877;BME280;2964;42.144;24.730;2023-04-30T09:55:35;148315.34;;;27.23;27.38
5877;BME280;2964;42.144;24.730;2023-04-30T09:58:05;148200.97;;;26.76;28.55
5877;BME280;2964;42.144;24.730;2023-04-30T10:00:33;148175.53;;;26.66;29.37
5877;BME280;2964;42.144;24.730;2023-04-30T10:03:05;148014.16;;;26.01;29.91
5877;BME280;2964;42.144;24.730;2023-04-30T10:05:35;148037.00;;;26.10;31.02
5877;BME280;2964;42.144;24.730;2023-04-30T10:08:06;147984.84;;;25.89;31.59
5877;BME280;2964;42.144;24.730;2023-04-30T10:10:33;147576.03;;;24.24;31.31
5877;BME280;2964;42.144;24.730;2023-04-30T10:13:05;147672.50;;;24.63;32.72
5877;BME280;2964;42.144;24.730;2023-04-30T10:15:38;147617.91;;;24.41;32.32
5877;BME280;2964;42.144;24.730;2023-04-30T10:18:13;147336.25;;;23.27;34.02
5877;BME280;2964;42.144;24.730;2023-04-30T10:20:45;147324.88;;;23.22;35.82
5877;BME280;2964;42.144;24.730;2023-04-30T10:23:12;147364.13;;;23.38;34.98
5877;BME280;2964;42.144;24.730;2023-04-30T10:25:40;147450.38;;;23.73;34.19
5877;BME280;2964;42.144;24.730;2023-04-30T10:28:09;147425.03;;;23.63;34.55
5877;BME280;2964;42.144;24.730;2023-04-30T10:30:37;147512.59;;;23.98;34.38
5877;BME280;2964;42.144;24.730;2023-04-30T10:33:11;147313.44;;;23.18;34.61
5877;BME280;2964;42.144;24.730;2023-04-30T10:35:44;147285.53;;;23.06;36.05
5877;BME280;2964;42.144;24.730;2023-04-30T10:38:16;147472.00;;;23.82;35.18
5877;BME280;2964;42.144;24.730;2023-04-30T10:40:46;147217.03;;;22.79;35.39
5877;BME280;2964;42.144;24.730;2023-04-30T10:43:16;147233.53;;;22.85;35.67
5877;BME280;2964;42.144;24.730;2023-04-30T10:45:43;147243.66;;;22.89;37.29
5877;BME280;2964;42.144;24.730;2023-04-30T10:48:10;147171.41;;;22.60;38.86
5877;BME280;2964;42.144;24.730;2023-04-30T10:50:41;147206.91;;;22.74;38.96
5877;BME280;2964;42.144;24.730;2023-04-30T10:53:12;147251.25;;;22.92;37.93
5877;BME280;2964;42.144;24.730;2023-04-30T10:55:45;147258.88;;;22.96;36.99
5877;BME280;2964;42.144;24.730;2023-04-30T10:58:25;147215.78;;;22.78;38.12
5877;BME280;2964;42.144;24.730;2023-04-30T11:01:03;147210.72;;;22.76;40.12
5877;BME280;2964;42.144;24.730;2023-04-30T11:03:30;147137.19;;;22.46;39.17
5877;BME280;2964;42.144;24.730;2023-04-30T11:05:58;147286.78;;;23.07;39.14
5877;BME280;2964;42.144;24.730;2023-04-30T11:08:34;147331.19;;;23.25;42.12
5877;BME280;2964;42.144;24.730;2023-04-30T11:11:01;147163.78;;;22.57;38.31
5877;BME280;2964;42.144;24.730;2023-04-30T11:13:39;147284.28;;;23.06;37.97
5877;BME280;2964;42.144;24.730;2023-04-30T11:16:07;147258.88;;;22.96;36.79
5877;BME280;2964;42.144;24.730;2023-04-30T11:18:40;147326.13;;;23.23;37.32
5877;BME280;2964;42.144;24.730;2023-04-30T11:21:07;147157.47;;;22.54;37.95
5877;BME280;2964;42.144;24.730;2023-04-30T11:23:35;147154.94;;;22.53;41.33
5877;BME280;2964;42.144;24.730;2023-04-30T11:26:02;147068.72;;;22.18;44.67
5877;BME280;2964;42.144;24.730;2023-04-30T11:28:31;147066.19;;;22.17;49.37
5877;BME280;2964;42.144;24.730;2023-04-30T11:31:00;146906.59;;;21.53;41.30
5877;BME280;2964;42.144;24.730;2023-04-30T11:33:29;147095.38;;;22.29;42.04
5877;BME280;2964;42.144;24.730;2023-04-30T11:35:57;147122.00;;;22.40;42.24
5877;BME280;2964;42.144;24.730;2023-04-30T11:38:26;147135.94;;;22.46;41.85
5877;BME280;2964;42.144;24.730;2023-04-30T11:40:53;147116.94;;;22.38;39.01
5877;BME280;2964;42.144;24.730;2023-04-30T11:43:21;147078.88;;;22.23;37.75
5877;BME280;2964;42.144;24.730;2023-04-30T11:46:00;147103.00;;;22.32;38.67
5877;BME280;2964;42.144;24.730;2023-04-30T11:48:31;146982.56;;;21.84;39.32
5877;BME280;2964;42.144;24.730;2023-04-30T11:50:57;147175.22;;;22.62;39.05
5877;BME280;2964;42.144;24.730;2023-04-30T11:53:26;147205.63;;;22.74;37.80
5877;BME280;2964;42.144;24.730;2023-04-30T11:55:53;147149.88;;;22.51;38.05
5877;BME280;2964;42.144;24.730;2023-04-30T11:58:20;147083.94;;;22.25;39.01
5877;BME280;2964;42.144;24.730;2023-04-30T12:00:47;146999.03;;;21.90;39.82
5877;BME280;2964;42.144;24.730;2023-04-30T12:03:17;147083.94;;;22.25;40.92
5877;BME280;2964;42.144;24.730;2023-04-30T12:05:45;146939.53;;;21.66;39.10
5877;BME280;2964;42.144;24.730;2023-04-30T12:08:12;146934.47;;;21.64;38.83
5877;BME280;2964;42.144;24.730;2023-04-30T12:10:39;146983.88;;;21.84;39.48
5877;BME280;2964;42.144;24.730;2023-04-30T12:13:05;146999.03;;;21.90;40.77
5877;BME280;2964;42.144;24.730;2023-04-30T12:15:32;147058.59;;;22.14;38.51
5877;BME280;2964;42.144;24.730;2023-04-30T12:17:59;147083.94;;;22.25;37.70
5877;BME280;2964;42.144;24.730;2023-04-30T12:20:38;147067.44;;;22.18;37.25
5877;BME280;2964;42.144;24.730;2023-04-30T12:23:05;146959.75;;;21.74;38.58
5877;BME280;2964;42.144;24.730;2023-04-30T12:25:39;146919.28;;;21.58;38.95
5877;BME280;2964;42.144;24.730;2023-04-30T12:28:07;146981.31;;;21.83;39.34
5877;BME280;2964;42.144;24.730;2023-04-30T12:30:33;146947.13;;;21.69;43.32
5877;BME280;2964;42.144;24.730;2023-04-30T12:33:00;146602.69;;;20.30;54.71
5877;BME280;2964;42.144;24.730;2023-04-30T12:35:29;146350.94;;;19.27;58.86
5877;BME280;2964;42.144;24.730;2023-04-30T12:38:03;146106.94;;;18.28;64.92
5877;BME280;2964;42.144;24.730;2023-04-30T12:40:30;146109.44;;;18.29;69.82
5877;BME280;2964;42.144;24.730;2023-04-30T12:43:01;146051.38;;;18.06;71.66
5877;BME280;2964;42.144;24.730;2023-04-30T12:45:45;145955.28;;;17.67;70.28
5877;BME280;2964;42.144;24.730;2023-04-30T12:48:14;145919.97;;;17.52;76.82
5877;BME280;2964;42.144;24.730;2023-04-30T12:50:41;145639.66;;;16.38;78.95
5877;BME280;2964;42.144;24.730;2023-04-30T12:53:09;145826.50;;;17.14;73.89
5877;BME280;2964;42.144;24.730;2023-04-30T12:55:37;145826.50;;;17.14;68.76
5877;BME280;2964;42.144;24.730;2023-04-30T12:58:05;145664.88;;;16.49;76.49
5877;BME280;2964;42.144;24.730;2023-04-30T13:00:46;145609.38;;;16.26;85.23
5877;BME280;2964;42.144;24.730;2023-04-30T13:03:13;145630.84;;;16.35;81.56
5877;BME280;2964;42.144;24.730;2023-04-30T13:05:41;145676.25;;;16.53;89.96